Time;durP1;ratioP1;P1;durP2;ratioP2;P2;SDS_P1;SDS_P2;PMS_P1;PMS_P2;Temp;Humidity;BMP_temperature;BMP_pressure;BME280_temperature;BME280_humidity;BME280_pressure;Samples;Min_cycle;Max_cycle;Signal;HPM_P1;HPM_P2
2021/10/22 04:52:53;;;;;;;26.30;4.90;;;;;;;;;;5103446;23;20041;-91
2021/10/22 04:55:26;;;;;;;15.75;4.53;;;;;;;;;;5013224;28;20046;-91
2021/10/22 04:57:57;;;;;;;25.00;4.32;;;;;;;;;;5012968;28;20049;-89
2021/10/22 05:00:45;;;;;;;20.58;4.60;;;;;;;;;;5014580;28;20073;-90
2021/10/22 05:03:17;;;;;;;17.48;4.68;;;;;;;;;;5012611;28;20070;-91
2021/10/22 05:13:14;;;;;;;;;;;;;;;;;;;;;
2021/10/22 05:29:44;;;;;;;24.75;4.82;;;;;;;;;;5017520;28;20257;-91
2021/10/22 05:32:28;;;;;;;17.92;5.22;;;;;;;;;;5030076;28;20045;-90
2021/10/22 05:35:17;;;;;;;17.90;4.70;;;;;;;;;;5013973;28;20041;-90
2021/10/22 05:44:35;;;;;;;22.35;5.70;;;;;;;;;;5034265;28;20045;-89
2021/10/22 05:47:24;;;;;;;21.60;5.63;;;;;;;;;;5048935;28;20045;-89
2021/10/22 06:44:32;;;;;;;16.85;5.38;;;;;;;;;;4853503;29;20049;-89
2021/10/22 06:47:16;;;;;;;22.98;4.70;;;;;;;;;;4882372;29;20047;-90
2021/10/22 07:32:18;;;;;;;9.57;3.58;;;;;;;;;;4913393;29;20110;-91
2021/10/22 07:34:53;;;;;;;11.38;2.30;;;;;;;;;;4915151;29;20048;-90
2021/10/22 07:37:34;;;;;;;10.05;2.55;;;;;;;;;;4960992;28;20129;-89
2021/10/22 07:40:12;;;;;;;8.10;3.17;;;;;;;;;;4970296;28;20138;-91
2021/10/22 07:45:32;;;;;;;16.65;3.05;;;;;;;;;;4971971;28;20101;-91
2021/10/22 07:48:01;;;;;;;11.90;3.00;;;;;;;;;;4994887;28;20039;-90
2021/10/22 07:50:29;;;;;;;9.90;2.90;;;;;;;;;;5014333;28;20061;-89
2021/10/22 07:52:56;;;;;;;11.65;2.80;;;;;;;;;;4996314;28;20058;-88
2021/10/22 07:55:24;;;;;;;15.00;3.42;;;;;;;;;;4998666;28;20042;-89
2021/10/22 07:57:52;;;;;;;12.63;2.75;;;;;;;;;;4988829;28;20097;-89
2021/10/22 08:00:21;;;;;;;15.95;2.35;;;;;;;;;;5010342;28;20038;-88
2021/10/22 08:02:48;;;;;;;13.07;3.50;;;;;;;;;;5012816;28;20046;-88
2021/10/22 08:05:27;;;;;;;8.82;2.47;;;;;;;;;;4979489;28;20531;-89
2021/10/22 08:07:57;;;;;;;10.45;3.17;;;;;;;;;;4988751;28;20225;-85
2021/10/22 08:10:24;;;;;;;9.45;2.50;;;;;;;;;;4982226;28;20049;-87
2021/10/22 08:12:52;;;;;;;12.10;3.67;;;;;;;;;;4995569;28;20043;-87
2021/10/22 08:15:19;;;;;;;12.15;3.08;;;;;;;;;;4998270;28;20055;-87
2021/10/22 08:17:47;;;;;;;9.02;2.63;;;;;;;;;;4995400;28;20050;-87
2021/10/22 08:23:05;;;;;;;12.57;3.30;;;;;;;;;;5000296;28;20050;-91
2021/10/22 08:25:33;;;;;;;8.35;2.33;;;;;;;;;;4981067;28;20101;-91
2021/10/22 08:30:44;;;;;;;10.93;2.78;;;;;;;;;;5007843;28;20025;-92
2021/10/22 08:33:22;;;;;;;8.60;2.78;;;;;;;;;;5032507;28;20027;-92
2021/10/22 08:35:52;;;;;;;10.25;3.22;;;;;;;;;;5009343;28;20038;-92
2021/10/22 08:38:30;;;;;;;11.02;3.13;;;;;;;;;;5002844;28;20072;-94
2021/10/22 08:45:15;;;;;;;;;;;;;;;;;;;;;
2021/10/22 08:48:15;;;;;;;11.63;2.90;;;;;;;;;;5016319;28;20494;-90
2021/10/22 08:50:56;;;;;;;8.77;2.50;;;;;;;;;;4995259;28;20562;-94
2021/10/22 08:53:25;;;;;;;11.73;2.90;;;;;;;;;;5010802;28;20065;-88
2021/10/22 09:02:51;;;;;;;9.45;2.40;;;;;;;;;;5125359;23;20037;-91
2021/10/22 09:05:26;;;;;;;14.00;3.13;;;;;;;;;;5055546;28;20029;-89
2021/10/22 09:08:05;;;;;;;10.45;2.72;;;;;;;;;;5037024;28;20047;-90
2021/10/22 09:14:21;;;;;;;12.03;3.23;;;;;;;;;;5021142;28;20048;-89
2021/10/22 09:17:01;;;;;;;11.82;3.03;;;;;;;;;;5030087;28;20553;-90
2021/10/22 09:19:36;;;;;;;12.45;2.28;;;;;;;;;;5035850;28;20041;-90
2021/10/22 09:22:24;;;;;;;6.15;2.33;;;;;;;;;;5021703;28;20053;-89
2021/10/22 09:25:25;;;;;;;11.15;2.47;;;;;;;;;;5044757;22;20063;-91
2021/10/22 09:27:57;;;;;;;11.63;3.00;;;;;;;;;;5060714;28;20044;-89
2021/10/22 09:30:49;;;;;;;9.57;2.08;;;;;;;;;;5065416;28;20045;-90
2021/10/22 09:33:21;;;;;;;5.68;1.92;;;;;;;;;;5055699;28;20048;-89
2021/10/22 09:35:50;;;;;;;11.23;3.03;;;;;;;;;;5067998;28;20051;-87
2021/10/22 09:38:20;;;;;;;13.60;4.13;;;;;;;;;;5053185;28;20541;-87
2021/10/22 09:40:48;;;;;;;12.73;3.60;;;;;;;;;;5065753;28;20033;-85
2021/10/22 09:43:18;;;;;;;7.28;2.50;;;;;;;;;;5051748;28;20050;-87
2021/10/22 09:45:48;;;;;;;10.35;2.70;;;;;;;;;;5065162;28;20100;-88
2021/10/22 10:00:06;;;;;;;9.60;3.03;;;;;;;;;;5240101;22;20057;-88
2021/10/22 10:02:35;;;;;;;5.85;2.20;;;;;;;;;;4980984;28;20042;-85
2021/10/22 10:05:06;;;;;;;13.23;2.47;;;;;;;;;;4978650;28;20093;-86
2021/10/22 10:07:38;;;;;;;10.95;2.28;;;;;;;;;;4973687;28;20096;-86
2021/10/22 10:10:19;;;;;;;11.20;3.47;;;;;;;;;;4963390;28;20113;-87
2021/10/22 10:12:52;;;;;;;10.63;1.95;;;;;;;;;;4994226;28;20141;-88
2021/10/22 10:15:25;;;;;;;9.40;2.03;;;;;;;;;;5015512;23;20046;-87
2021/10/22 10:18:00;;;;;;;8.05;2.70;;;;;;;;;;5042089;28;20271;-87
2021/10/22 10:20:31;;;;;;;7.68;2.28;;;;;;;;;;5039736;28;20053;-84
2021/10/22 10:22:58;;;;;;;7.78;2.05;;;;;;;;;;5029096;28;20049;-83
2021/10/22 10:25:27;;;;;;;6.15;2.42;;;;;;;;;;5028976;28;20041;-84
2021/10/22 10:28:12;;;;;;;7.93;2.28;;;;;;;;;;5028462;28;20048;-85
2021/10/22 10:30:41;;;;;;;9.77;2.22;;;;;;;;;;5026669;28;20053;-85
2021/10/22 10:33:11;;;;;;;10.23;1.83;;;;;;;;;;5014404;28;20944;-87
2021/10/22 10:39:32;;;;;;;;;;;;;;;;;;;;;
2021/10/22 10:42:22;;;;;;;12.00;2.38;;;;;;;;;;5034483;23;20042;-85
2021/10/22 10:48:09;;;;;;;7.15;2.15;;;;;;;;;;4940137;28;20546;-89
2021/10/22 10:51:27;;;;;;;7.55;1.83;;;;;;;;;;4935539;29;20047;-89
2021/10/22 10:54:04;;;;;;;9.07;2.78;;;;;;;;;;4934012;29;20044;-90
2021/10/22 10:56:56;;;;;;;7.30;2.22;;;;;;;;;;4918347;29;20048;-90
2021/10/22 10:59:48;;;;;;;11.80;1.88;;;;;;;;;;4929492;29;20088;-90
2021/10/22 11:02:45;;;;;;;7.18;1.35;;;;;;;;;;4900255;29;20044;-89
2021/10/22 11:05:39;;;;;;;10.05;2.40;;;;;;;;;;4920304;29;20425;-90
2021/10/22 11:14:17;;;;;;;5.97;1.50;;;;;;;;;;4930694;29;20047;-90
2021/10/22 11:16:55;;;;;;;6.45;2.05;;;;;;;;;;4932128;29;20541;-90
2021/10/22 11:19:45;;;;;;;4.85;1.65;;;;;;;;;;4930855;29;20046;-90
2021/10/22 11:25:56;;;;;;;3.92;1.98;;;;;;;;;;4932689;29;20478;-90
2021/10/22 11:28:46;;;;;;;9.30;2.20;;;;;;;;;;4930981;29;20044;-89
2021/10/22 11:31:30;;;;;;;;;;;;;;;;;;;;;
2021/10/22 11:40:14;;;;;;;8.88;1.77;;;;;;;;;;4924806;29;20036;-90
2021/10/22 11:43:32;;;;;;;3.00;1.42;;;;;;;;;;4920594;29;20039;-91
2021/10/22 11:46:15;;;;;;;7.72;2.03;;;;;;;;;;4954224;28;20042;-89
2021/10/22 11:58:42;;;;;;;6.07;1.70;;;;;;;;;;5029425;28;20385;-89
2021/10/22 12:05:00;;;;;;;6.25;1.80;;;;;;;;;;5048485;28;20045;-90
2021/10/22 12:46:17;;;;;;;4.65;1.50;;;;;;;;;;4920958;29;20484;-91
2021/10/22 13:28:54;;;;;;;4.95;1.70;;;;;;;;;;5958510;22;20618;-91
2021/10/22 13:37:25;;;;;;;8.93;1.35;;;;;;;;;;5033856;22;20140;-94
2021/10/22 13:43:26;;;;;;;8.32;1.67;;;;;;;;;;5038292;28;20983;-94
2021/10/22 13:46:18;;;;;;;5.30;1.48;;;;;;;;;;5034981;28;20117;-94
2021/10/22 13:48:59;;;;;;;10.73;2.25;;;;;;;;;;5029429;28;20026;-93
2021/10/22 13:51:39;;;;;;;7.35;2.25;;;;;;;;;;5074330;28;20059;-93
2021/10/22 13:54:12;;;;;;;7.57;2.03;;;;;;;;;;5059950;28;20490;-92
2021/10/22 13:56:40;;;;;;;3.42;1.55;;;;;;;;;;5057434;28;20048;-90
2021/10/22 13:59:36;;;;;;;4.75;1.30;;;;;;;;;;5022480;28;20041;-92
2021/10/22 14:02:04;;;;;;;6.88;1.73;;;;;;;;;;5036725;28;20044;-85
2021/10/22 14:04:36;;;;;;;6.80;1.52;;;;;;;;;;5042227;28;20109;-87
2021/10/22 14:07:11;;;;;;;4.82;2.03;;;;;;;;;;5088519;22;20248;-88
2021/10/22 14:09:45;;;;;;;5.13;1.80;;;;;;;;;;5009996;28;20069;-87
2021/10/22 14:12:43;;;;;;;8.65;2.20;;;;;;;;;;5030463;28;20053;-93
2021/10/22 14:24:36;;;;;;;7.65;1.77;;;;;;;;;;5034024;28;20646;-90
2021/10/22 14:29:57;;;;;;;5.90;1.88;;;;;;;;;;5032984;28;20065;-88
2021/10/22 14:32:25;;;;;;;6.78;2.03;;;;;;;;;;5040495;28;20049;-86
2021/10/22 14:34:58;;;;;;;7.82;2.50;;;;;;;;;;5032229;28;20067;-90
2021/10/22 14:37:28;;;;;;;8.15;2.72;;;;;;;;;;5029603;28;20049;-88
2021/10/22 14:39:56;;;;;;;9.63;3.35;;;;;;;;;;5032234;28;20107;-90
2021/10/22 14:42:28;;;;;;;9.20;2.95;;;;;;;;;;5025489;28;20056;-87
2021/10/22 14:44:57;;;;;;;3.40;1.77;;;;;;;;;;5043521;28;20041;-88
2021/10/22 14:47:34;;;;;;;6.25;2.30;;;;;;;;;;5032147;28;20041;-89
2021/10/22 14:50:19;;;;;;;8.68;2.92;;;;;;;;;;5232310;23;20042;-91
2021/10/22 15:16:36;;;;;;;11.38;3.03;;;;;;;;;;6049717;22;21098;-90
2021/10/22 15:19:14;;;;;;;11.38;3.80;;;;;;;;;;5062682;28;20044;-88
2021/10/22 15:22:11;;;;;;;4.72;1.58;;;;;;;;;;5059564;28;20080;-89
2021/10/22 15:24:53;;;;;;;10.18;3.63;;;;;;;;;;5061568;28;20483;-87
2021/10/22 15:27:50;;;;;;;6.00;1.88;;;;;;;;;;5056772;28;20047;-88
2021/10/22 15:37:11;;;;;;;5.88;1.50;;;;;;;;;;5049412;28;20047;-87
2021/10/22 15:39:51;;;;;;;3.67;1.70;;;;;;;;;;5053873;28;20126;-89
2021/10/22 15:42:55;;;;;;;;;;;;;;;;;;;;;
2021/10/22 15:55:37;;;;;;;6.65;3.13;;;;;;;;;;5039742;28;20057;-88
2021/10/22 15:58:20;;;;;;;9.63;3.92;;;;;;;;;;5054033;28;20077;-89
2021/10/22 16:17:04;;;;;;;10.02;4.05;;;;;;;;;;5052247;28;20048;-89
2021/10/22 16:26:16;;;;;;;14.13;6.28;;;;;;;;;;5025335;28;20056;-89
2021/10/22 16:29:03;;;;;;;5.20;1.70;;;;;;;;;;5068578;28;20044;-88
2021/10/22 16:32:30;;;;;;;18.15;9.57;;;;;;;;;;5064698;28;20080;-90
2021/10/22 16:38:04;;;;;;;10.00;3.10;;;;;;;;;;5016796;28;20042;-92
2021/10/22 16:40:33;;;;;;;5.95;2.35;;;;;;;;;;5042806;28;20134;-89
2021/10/22 16:43:10;;;;;;;5.78;1.98;;;;;;;;;;5053708;28;20029;-94
2021/10/22 17:04:27;;;;;;;5.72;2.72;;;;;;;;;;4995416;28;20076;-88
2021/10/22 17:10:44;;;;;;;6.80;3.70;;;;;;;;;;5046081;28;20179;-89
2021/10/22 17:13:16;;;;;;;4.93;2.22;;;;;;;;;;5039372;28;20087;-89
2021/10/22 17:15:47;;;;;;;7.85;2.47;;;;;;;;;;5057095;28;20045;-91
2021/10/22 17:18:15;;;;;;;4.25;3.03;;;;;;;;;;5039518;28;20043;-90
2021/10/22 17:20:43;;;;;;;8.80;5.07;;;;;;;;;;5040328;28;20187;-91
2021/10/22 17:23:11;;;;;;;7.00;4.22;;;;;;;;;;5052570;28;20045;-89
2021/10/22 17:25:41;;;;;;;7.88;2.30;;;;;;;;;;5031980;28;20044;-90
2021/10/22 17:28:09;;;;;;;10.68;4.68;;;;;;;;;;5048883;28;20070;-89
2021/10/22 17:30:56;;;;;;;18.17;7.30;;;;;;;;;;5053316;28;20091;-91
2021/10/22 17:33:26;;;;;;;25.75;12.75;;;;;;;;;;5063568;28;20063;-91
2021/10/22 17:35:56;;;;;;;48.22;18.80;;;;;;;;;;5043706;28;20139;-92
2021/10/22 17:38:29;;;;;;;28.38;10.82;;;;;;;;;;5047624;28;20036;-90
2021/10/22 17:40:57;;;;;;;29.48;12.68;;;;;;;;;;5052227;28;20144;-90
2021/10/22 17:43:34;;;;;;;32.00;13.38;;;;;;;;;;5031413;28;20060;-87
2021/10/22 17:46:03;;;;;;;12.43;5.35;;;;;;;;;;5070440;28;20037;-91
2021/10/22 17:48:32;;;;;;;7.38;2.35;;;;;;;;;;5248392;22;20066;-92
2021/10/22 17:53:48;;;;;;;7.43;3.47;;;;;;;;;;5055008;28;20115;-94
2021/10/22 17:56:32;;;;;;;7.65;2.80;;;;;;;;;;5046592;28;20049;-91
2021/10/22 18:05:04;;;;;;;15.63;5.05;;;;;;;;;;5062326;28;20067;-90
2021/10/22 18:07:32;;;;;;;7.50;2.58;;;;;;;;;;5045503;28;20186;-88
2021/10/22 18:10:00;;;;;;;7.15;2.63;;;;;;;;;;5045482;28;20056;-85
2021/10/22 18:12:29;;;;;;;9.73;2.67;;;;;;;;;;5041427;28;20064;-87
2021/10/22 18:14:57;;;;;;;12.45;2.70;;;;;;;;;;5069088;28;20068;-86
2021/10/22 18:17:24;;;;;;;10.45;1.83;;;;;;;;;;5073126;28;20131;-89
2021/10/22 18:20:04;;;;;;;11.38;3.53;;;;;;;;;;5080588;28;20028;-89
2021/10/22 18:22:34;;;;;;;8.95;2.60;;;;;;;;;;5067072;28;20105;-86
2021/10/22 18:25:02;;;;;;;6.78;2.28;;;;;;;;;;5056030;28;20168;-87
2021/10/22 18:27:30;;;;;;;7.43;3.58;;;;;;;;;;5055682;28;20033;-86
2021/10/22 18:29:58;;;;;;;3.95;2.60;;;;;;;;;;5057362;28;20124;-85
2021/10/22 18:32:26;;;;;;;5.40;1.92;;;;;;;;;;5057271;28;20416;-83
2021/10/22 18:34:56;;;;;;;10.52;3.50;;;;;;;;;;5051937;28;20144;-85
2021/10/22 18:37:24;;;;;;;7.00;2.05;;;;;;;;;;5049661;28;20060;-84
2021/10/22 18:39:55;;;;;;;7.60;2.38;;;;;;;;;;5049939;28;20120;-86
2021/10/22 18:42:22;;;;;;;6.07;2.17;;;;;;;;;;5046046;28;20055;-86
2021/10/22 18:44:52;;;;;;;7.22;2.50;;;;;;;;;;5042316;28;20036;-83
2021/10/22 18:47:21;;;;;;;9.88;2.00;;;;;;;;;;5041066;28;20037;-84
2021/10/22 18:49:54;;;;;;;7.40;2.63;;;;;;;;;;5042575;28;20052;-84
2021/10/22 18:52:22;;;;;;;6.57;1.95;;;;;;;;;;5060024;28;20052;-83
2021/10/22 18:54:50;;;;;;;4.47;1.90;;;;;;;;;;5042716;28;20453;-85
2021/10/22 18:57:19;;;;;;;4.80;1.70;;;;;;;;;;5053176;28;20409;-84
2021/10/22 18:59:46;;;;;;;6.18;2.25;;;;;;;;;;5054640;28;20072;-84
2021/10/22 19:02:15;;;;;;;6.18;1.95;;;;;;;;;;5058248;28;20036;-84
2021/10/22 19:04:49;;;;;;;6.57;2.08;;;;;;;;;;5071315;28;20056;-85
2021/10/22 19:07:17;;;;;;;2.25;1.63;;;;;;;;;;5070445;28;20049;-84
2021/10/22 19:09:47;;;;;;;10.57;2.28;;;;;;;;;;5049919;28;20042;-84
2021/10/22 19:12:15;;;;;;;6.47;2.33;;;;;;;;;;5057071;28;20123;-86
2021/10/22 19:14:52;;;;;;;8.50;3.05;;;;;;;;;;5055499;28;20076;-88
2021/10/22 19:17:20;;;;;;;9.45;2.50;;;;;;;;;;5053039;28;20036;-85
2021/10/22 19:19:47;;;;;;;10.52;2.13;;;;;;;;;;5061807;28;20070;-86
2021/10/22 19:22:17;;;;;;;10.88;3.15;;;;;;;;;;5067911;28;20032;-86
2021/10/22 19:24:44;;;;;;;14.65;3.40;;;;;;;;;;5050026;28;20306;-85
2021/10/22 19:27:12;;;;;;;10.73;2.88;;;;;;;;;;5068751;28;20410;-85
2021/10/22 19:29:40;;;;;;;13.57;2.60;;;;;;;;;;5053910;28;20032;-85
2021/10/22 19:32:09;;;;;;;6.65;2.72;;;;;;;;;;5050936;28;20045;-86
2021/10/22 19:34:37;;;;;;;13.07;2.85;;;;;;;;;;5057227;28;20037;-84
2021/10/22 19:37:05;;;;;;;7.55;2.72;;;;;;;;;;5074700;28;20049;-85
2021/10/22 19:39:33;;;;;;;11.63;2.72;;;;;;;;;;5057981;28;20079;-85
2021/10/22 19:42:00;;;;;;;6.70;2.33;;;;;;;;;;5064931;28;20028;-85
2021/10/22 19:47:15;;;;;;;8.50;2.20;;;;;;;;;;5086741;28;20025;-84
2021/10/22 19:49:42;;;;;;;11.93;2.22;;;;;;;;;;5084309;28;20051;-85
2021/10/22 19:52:09;;;;;;;8.13;2.50;;;;;;;;;;5069388;28;20148;-85
2021/10/22 19:54:37;;;;;;;11.13;3.17;;;;;;;;;;5055572;28;20051;-85
2021/10/22 19:57:05;;;;;;;6.93;2.50;;;;;;;;;;5065124;28;20094;-85
2021/10/22 19:59:32;;;;;;;8.00;2.55;;;;;;;;;;5065540;28;20482;-84
2021/10/22 20:02:01;;;;;;;8.50;3.08;;;;;;;;;;5069394;28;20044;-85
2021/10/22 20:04:30;;;;;;;5.13;2.30;;;;;;;;;;5056612;28;20045;-85
2021/10/22 20:06:58;;;;;;;7.07;2.45;;;;;;;;;;5065000;28;20033;-86
2021/10/22 20:09:27;;;;;;;6.90;2.45;;;;;;;;;;5052464;28;20053;-84
2021/10/22 20:11:54;;;;;;;5.85;2.08;;;;;;;;;;5063909;28;20505;-84
2021/10/22 20:14:22;;;;;;;9.32;2.45;;;;;;;;;;5049343;28;20040;-84
2021/10/22 20:16:49;;;;;;;9.10;2.60;;;;;;;;;;5071075;28;20036;-84
2021/10/22 20:19:19;;;;;;;10.85;3.45;;;;;;;;;;5072493;28;20537;-84
2021/10/22 20:21:50;;;;;;;9.85;2.83;;;;;;;;;;5067343;28;20040;-82
2021/10/22 20:24:17;;;;;;;8.50;3.50;;;;;;;;;;5068281;28;20106;-84
2021/10/22 20:26:45;;;;;;;8.45;3.25;;;;;;;;;;5063999;28;20033;-84
2021/10/22 20:29:12;;;;;;;13.05;4.07;;;;;;;;;;5061411;28;20127;-87
2021/10/22 20:31:40;;;;;;;13.05;4.10;;;;;;;;;;5068228;28;20044;-84
2021/10/22 20:34:07;;;;;;;10.18;3.78;;;;;;;;;;5064392;28;20068;-85
2021/10/22 20:36:36;;;;;;;9.48;3.28;;;;;;;;;;5066521;28;20036;-85
2021/10/22 20:39:06;;;;;;;5.93;3.00;;;;;;;;;;5056867;28;20490;-85
2021/10/22 20:41:34;;;;;;;8.65;3.08;;;;;;;;;;5057788;28;20101;-85
2021/10/22 20:44:01;;;;;;;7.00;2.92;;;;;;;;;;5046961;28;20050;-85
2021/10/22 20:46:30;;;;;;;5.70;3.22;;;;;;;;;;5058014;28;20044;-86
2021/10/22 20:57:26;;;;;;;8.27;3.08;;;;;;;;;;5064099;28;20310;-82
2021/10/22 20:59:54;;;;;;;6.35;2.67;;;;;;;;;;5064586;28;20060;-86
2021/10/22 21:02:21;;;;;;;10.60;3.30;;;;;;;;;;5053108;28;20036;-84
2021/10/22 21:04:49;;;;;;;12.15;4.18;;;;;;;;;;5059235;28;20049;-84
2021/10/22 21:07:16;;;;;;;9.52;3.05;;;;;;;;;;5058205;28;20056;-83
2021/10/22 21:09:45;;;;;;;12.32;3.83;;;;;;;;;;5063330;28;20118;-83
2021/10/22 21:12:13;;;;;;;8.18;2.83;;;;;;;;;;5036694;28;20376;-83
2021/10/22 21:14:40;;;;;;;8.52;3.45;;;;;;;;;;5066675;28;20478;-83
2021/10/22 21:17:07;;;;;;;12.30;3.58;;;;;;;;;;5077426;28;20049;-83
2021/10/22 21:19:35;;;;;;;12.95;4.18;;;;;;;;;;5095724;28;20029;-83
2021/10/22 21:22:02;;;;;;;13.30;3.70;;;;;;;;;;5090270;28;20075;-84
2021/10/22 21:24:29;;;;;;;18.17;4.82;;;;;;;;;;5085671;28;20063;-84
2021/10/22 21:26:59;;;;;;;11.05;4.03;;;;;;;;;;5061204;28;20025;-84
2021/10/22 21:29:27;;;;;;;12.85;4.28;;;;;;;;;;5066486;28;20474;-84
